Washington Heights, Pennsylvania
Current Conditions -  °F | °C
As of 1:56 AM on Thursday 23 Oct 2014 (Local Time) from KCXY Reporting Station
Overcast Overcast  
Wind Chill: 54°   Ceiling: 2600
Heat Index: 54°   Visibility: 10mi
Dew Point: 43°   Wind: 15mph
Humidity: 66%   Direction: 320°NW
Pressure: 29.9"   Gusts: 22mph
Location:  40.2478°N, 76.9006°W
Report Text: KCXY 230556Z AUTO 32013G19KT 10SM OVC026 12/06 A2990 RMK AO2 PK WND 32027/0502 SLP126 T01220061 10122 20117 56019
Loading
Personal Weather Stations






























Interactive Weather Map
Tropical Storm Tracking
New forecast layout! Learn more

10-Day Weather Forecast

Advertisements
Track Severe Weather on mobile